Terminal Aerodrome Forecast
Issued by NWS Billings, MT

Current Version | Previous Version | Text Only | Print | Product List | Glossary On
Versions: 1 2 3 4 5 6 7 8 9 10 11 12 13 14 15 16 17 18 19 20 21 22 23 24 25 26 27 28 29 30 31
000
FTUS45 KBYZ 060537
TAFMLS
TAF
KMLS 060537Z 0606/0706 33009KT P6SM VCSH BKN040
      TEMPO 0607/0611 -SHRA OVC025
     FM061100 33005KT 5SM FU VCSH OVC025
     FM061600 VRB04KT 6SM FU SCT025 BKN050
     FM062300 12005KT P6SM SKC=

USA.gov is the U.S. government's official web portal to all federal, state and local government web resources and services.